Nashua, Minnesota
Current Conditions -  °F | °C
As of 3:35 PM on Friday 24 Oct 2014 (Local Time) from KY63 Reporting Station
Clear Clear  
Wind Chill: 73°   Ceiling: Unl
Heat Index: 73°   Visibility: 10mi
Dew Point: 41°   Wind: 15mph
Humidity: 32%   Direction: 280°W
Pressure: 29.82"   Gusts: 20mph
Location:  46.04°N, 96.31°W
Report Text: KY63 242035Z AUTO 28013G17KT 10SM CLR 23/05 A2982 RMK AO2 T02250051
Loading
Personal Weather Stations






























Interactive Weather Map
Tropical Storm Tracking
New forecast layout! Learn more

10-Day Weather Forecast

Advertisements
Track Severe Weather on mobile